Time;durP1;ratioP1;P1;durP2;ratioP2;P2;SDS_P1;SDS_P2;PMS_P1;PMS_P2;Temp;Humidity;BMP_temperature;BMP_pressure;BME280_temperature;BME280_humidity;BME280_pressure;Samples;Min_cycle;Max_cycle;Signal;HPM_P1;HPM_P2
2023/03/08 00:01:52;;;;;;;38.53;23.07;;;;;;;;;;6237542;28;20179;-60
2023/03/08 00:04:56;;;;;;;39.63;22.90;;;;;;;;;;6230761;28;20201;-60
2023/03/08 00:07:57;;;;;;;38.90;23.47;;;;;;;;;;6224977;28;20652;-60
2023/03/08 00:10:58;;;;;;;39.33;23.47;;;;;;;;;;6222609;28;20204;-60
2023/03/08 00:14:00;;;;;;;38.87;24.70;;;;;;;;;;6244998;28;20190;-60
2023/03/08 00:17:01;;;;;;;34.50;23.30;;;;;;;;;;6227225;28;20207;-60
2023/03/08 00:20:04;;;;;;;39.33;24.20;;;;;;;;;;6240966;28;20273;-60
2023/03/08 00:23:05;;;;;;;42.57;24.33;;;;;;;;;;6242932;28;20189;-60
2023/03/08 00:26:07;;;;;;;46.13;26.80;;;;;;;;;;6247779;28;20285;-60
2023/03/08 00:29:08;;;;;;;54.83;30.17;;;;;;;;;;6242600;28;20245;-59
2023/03/08 00:32:09;;;;;;;42.10;25.53;;;;;;;;;;6246848;28;20194;-59
2023/03/08 00:35:10;;;;;;;41.87;24.67;;;;;;;;;;6241370;28;20238;-60
2023/03/08 00:38:11;;;;;;;37.60;24.07;;;;;;;;;;6223188;28;20653;-60
2023/03/08 00:41:12;;;;;;;43.00;24.73;;;;;;;;;;6224651;28;20194;-60
2023/03/08 00:44:13;;;;;;;46.50;25.60;;;;;;;;;;6221791;28;20198;-60
2023/03/08 00:47:14;;;;;;;38.30;23.80;;;;;;;;;;6213494;28;20210;-60
2023/03/08 00:50:16;;;;;;;34.83;22.03;;;;;;;;;;6236995;28;20289;-61
2023/03/08 00:53:17;;;;;;;38.03;22.87;;;;;;;;;;6235481;28;20190;-60
2023/03/08 00:56:18;;;;;;;36.50;24.23;;;;;;;;;;6244544;28;20221;-60
2023/03/08 00:59:19;;;;;;;39.43;25.50;;;;;;;;;;6241680;28;20202;-60
2023/03/08 01:02:20;;;;;;;37.43;24.03;;;;;;;;;;6220286;28;20702;-61
2023/03/08 01:05:21;;;;;;;31.00;21.77;;;;;;;;;;6228697;28;20236;-60
2023/03/08 01:08:22;;;;;;;34.10;21.00;;;;;;;;;;6221406;28;20190;-60
2023/03/08 01:11:25;;;;;;;36.77;23.77;;;;;;;;;;6241384;28;20191;-59
2023/03/08 01:14:26;;;;;;;34.30;21.83;;;;;;;;;;6246172;28;20183;-59
2023/03/08 01:17:27;;;;;;;37.97;24.13;;;;;;;;;;6214604;28;20219;-59
2023/03/08 01:20:28;;;;;;;31.90;21.37;;;;;;;;;;6226118;28;20222;-60
2023/03/08 01:23:30;;;;;;;29.73;18.93;;;;;;;;;;6217103;28;20195;-60
2023/03/08 01:26:31;;;;;;;31.63;20.27;;;;;;;;;;6224832;28;20199;-60
2023/03/08 01:29:32;;;;;;;31.13;20.27;;;;;;;;;;6238754;28;20277;-59
2023/03/08 01:32:33;;;;;;;29.43;19.60;;;;;;;;;;6223687;28;20238;-60
2023/03/08 01:35:34;;;;;;;30.50;19.80;;;;;;;;;;6212294;28;20293;-60
2023/03/08 01:38:35;;;;;;;31.13;21.63;;;;;;;;;;6222798;28;20201;-59
2023/03/08 01:41:37;;;;;;;30.37;20.40;;;;;;;;;;6239671;28;20191;-60
2023/03/08 01:44:51;;;;;;;30.10;19.17;;;;;;;;;;6245531;28;20187;-59
2023/03/08 01:47:52;;;;;;;27.53;17.90;;;;;;;;;;6243588;28;20218;-59
2023/03/08 01:50:53;;;;;;;27.23;18.47;;;;;;;;;;6226956;28;20241;-59
2023/03/08 01:53:55;;;;;;;25.70;17.20;;;;;;;;;;6234955;28;20235;-59
2023/03/08 01:57:05;;;;;;;26.43;16.73;;;;;;;;;;6239491;28;20317;-59
2023/03/08 02:00:08;;;;;;;24.20;17.23;;;;;;;;;;6240346;28;20646;-60
2023/03/08 02:03:10;;;;;;;27.93;17.03;;;;;;;;;;6251196;28;20187;-57
2023/03/08 02:06:12;;;;;;;24.10;17.70;;;;;;;;;;6251644;28;20191;-58
2023/03/08 02:09:13;;;;;;;23.73;16.63;;;;;;;;;;6247977;28;20243;-58
2023/03/08 02:12:14;;;;;;;25.20;16.60;;;;;;;;;;6234404;28;20194;-57
2023/03/08 02:15:16;;;;;;;22.83;16.30;;;;;;;;;;6249337;28;20214;-60
2023/03/08 02:18:17;;;;;;;23.33;17.00;;;;;;;;;;6239279;28;20196;-60
2023/03/08 02:21:19;;;;;;;23.07;17.10;;;;;;;;;;6250013;28;20190;-59
2023/03/08 02:24:24;;;;;;;24.47;16.80;;;;;;;;;;6251044;28;20182;-60
2023/03/08 02:27:26;;;;;;;23.03;15.73;;;;;;;;;;6242339;28;20250;-60
2023/03/08 02:30:30;;;;;;;20.00;14.50;;;;;;;;;;6249114;28;20190;-60
2023/03/08 02:33:33;;;;;;;22.20;15.03;;;;;;;;;;6231999;28;20191;-60
2023/03/08 02:36:34;;;;;;;24.37;16.70;;;;;;;;;;6229012;28;20227;-60
2023/03/08 02:39:35;;;;;;;22.03;15.10;;;;;;;;;;6217683;28;20324;-60
2023/03/08 02:42:37;;;;;;;22.00;15.53;;;;;;;;;;6233995;28;20190;-60
2023/03/08 02:45:38;;;;;;;21.63;15.17;;;;;;;;;;6243763;28;20198;-60
2023/03/08 02:48:39;;;;;;;22.43;16.10;;;;;;;;;;6234289;28;20198;-60
2023/03/08 02:51:40;;;;;;;23.83;16.93;;;;;;;;;;6226112;28;20194;-60
2023/03/08 02:54:41;;;;;;;22.77;16.53;;;;;;;;;;6253508;28;20203;-60
2023/03/08 02:57:42;;;;;;;20.63;15.10;;;;;;;;;;6235623;28;20225;-60
2023/03/08 03:00:43;;;;;;;22.80;16.70;;;;;;;;;;6227775;28;20186;-60
2023/03/08 03:03:44;;;;;;;19.07;14.67;;;;;;;;;;6227161;28;20230;-60
2023/03/08 03:06:45;;;;;;;19.87;14.47;;;;;;;;;;6226268;28;20195;-60
2023/03/08 03:09:46;;;;;;;19.00;14.37;;;;;;;;;;6229092;28;20190;-60
2023/03/08 03:12:47;;;;;;;21.67;15.47;;;;;;;;;;6236318;28;20190;-60
2023/03/08 03:15:48;;;;;;;21.57;15.00;;;;;;;;;;6232970;28;20304;-60
2023/03/08 03:18:49;;;;;;;22.57;15.77;;;;;;;;;;6225144;28;20190;-60
2023/03/08 03:21:50;;;;;;;20.40;15.00;;;;;;;;;;6229380;28;20228;-60
2023/03/08 03:24:51;;;;;;;21.23;14.63;;;;;;;;;;6227806;28;20193;-61
2023/03/08 03:27:53;;;;;;;20.17;14.47;;;;;;;;;;6249216;28;20190;-60
2023/03/08 03:30:54;;;;;;;18.13;14.10;;;;;;;;;;6225210;28;20214;-60
2023/03/08 03:33:55;;;;;;;21.90;15.07;;;;;;;;;;6216766;28;20325;-60
2023/03/08 03:36:56;;;;;;;23.80;15.43;;;;;;;;;;6228089;28;20304;-60
2023/03/08 03:39:57;;;;;;;20.33;14.70;;;;;;;;;;6242609;28;20186;-59
2023/03/08 03:42:58;;;;;;;21.53;15.93;;;;;;;;;;6232772;28;20186;-59
2023/03/08 03:46:01;;;;;;;21.13;14.27;;;;;;;;;;6225524;28;20190;-58
2023/03/08 03:49:02;;;;;;;21.37;15.00;;;;;;;;;;6229922;28;20194;-59
2023/03/08 03:52:03;;;;;;;24.73;15.97;;;;;;;;;;6244251;28;20194;-60
2023/03/08 03:55:04;;;;;;;20.83;15.90;;;;;;;;;;6240940;28;20218;-59
2023/03/08 03:58:05;;;;;;;20.73;14.87;;;;;;;;;;6219194;28;20199;-59
2023/03/08 04:01:11;;;;;;;21.47;14.87;;;;;;;;;;6230503;28;20187;-59
2023/03/08 04:04:12;;;;;;;21.63;15.57;;;;;;;;;;6242476;28;20277;-59
2023/03/08 04:07:13;;;;;;;21.67;14.57;;;;;;;;;;6227193;28;20198;-59
2023/03/08 04:10:14;;;;;;;20.40;15.27;;;;;;;;;;6225902;28;20230;-60
2023/03/08 04:13:15;;;;;;;23.20;16.10;;;;;;;;;;6232361;28;20194;-59
2023/03/08 04:16:17;;;;;;;23.40;16.23;;;;;;;;;;6223650;28;20218;-59
2023/03/08 04:19:18;;;;;;;28.37;18.07;;;;;;;;;;6245572;28;20281;-60
2023/03/08 04:22:19;;;;;;;22.77;16.20;;;;;;;;;;6237804;28;20278;-60
2023/03/08 04:25:20;;;;;;;26.27;17.23;;;;;;;;;;6231231;28;20198;-60
2023/03/08 04:28:21;;;;;;;25.37;16.30;;;;;;;;;;6236011;28;20197;-60
2023/03/08 04:31:27;;;;;;;27.47;17.00;;;;;;;;;;6239855;28;20193;-60
2023/03/08 04:34:28;;;;;;;25.47;17.30;;;;;;;;;;6254695;28;20266;-60
2023/03/08 04:37:29;;;;;;;24.03;17.47;;;;;;;;;;6222556;28;20226;-60
2023/03/08 04:40:30;;;;;;;28.30;19.00;;;;;;;;;;6227079;28;20189;-60
2023/03/08 04:43:32;;;;;;;27.67;18.43;;;;;;;;;;6223113;28;20238;-60
2023/03/08 04:46:33;;;;;;;23.67;16.57;;;;;;;;;;6238192;28;20198;-60
2023/03/08 04:49:34;;;;;;;23.37;16.20;;;;;;;;;;6228022;28;20276;-56
2023/03/08 04:52:35;;;;;;;25.50;17.13;;;;;;;;;;6236101;28;20222;-58
2023/03/08 04:55:36;;;;;;;23.93;17.03;;;;;;;;;;6216224;28;20218;-57
2023/03/08 04:58:38;;;;;;;24.80;16.07;;;;;;;;;;6240669;28;20221;-57
2023/03/08 05:01:39;;;;;;;21.80;14.67;;;;;;;;;;6247396;28;20229;-58
2023/03/08 05:04:40;;;;;;;21.07;15.60;;;;;;;;;;6229487;28;20206;-59
2023/03/08 05:07:41;;;;;;;24.13;16.67;;;;;;;;;;6231023;28;20286;-58
2023/03/08 05:11:03;;;;;;;24.73;17.77;;;;;;;;;;6226149;28;20191;-58
2023/03/08 05:14:04;;;;;;;31.40;20.43;;;;;;;;;;6241499;28;20203;-59
2023/03/08 05:17:05;;;;;;;24.07;17.60;;;;;;;;;;6231169;28;20214;-59
2023/03/08 05:20:06;;;;;;;25.77;17.73;;;;;;;;;;6235250;28;20213;-59
2023/03/08 05:23:08;;;;;;;21.73;16.33;;;;;;;;;;6252627;28;20241;-59
2023/03/08 05:26:10;;;;;;;23.70;15.80;;;;;;;;;;6232346;28;20205;-52
2023/03/08 05:29:11;;;;;;;23.60;16.23;;;;;;;;;;6246992;28;20186;-58
2023/03/08 05:32:13;;;;;;;27.57;18.10;;;;;;;;;;6236732;28;20198;-54
2023/03/08 05:35:14;;;;;;;27.67;17.30;;;;;;;;;;6247836;28;20244;-56
2023/03/08 05:38:15;;;;;;;26.37;19.13;;;;;;;;;;6238331;28;20242;-57
2023/03/08 05:41:16;;;;;;;24.60;17.10;;;;;;;;;;6234889;28;20645;-55
2023/03/08 05:44:17;;;;;;;27.80;17.70;;;;;;;;;;6243600;28;20230;-57
2023/03/08 05:47:18;;;;;;;26.63;17.80;;;;;;;;;;6231219;28;20248;-56
2023/03/08 05:50:19;;;;;;;23.97;16.57;;;;;;;;;;6226874;28;20665;-59
2023/03/08 05:53:21;;;;;;;27.07;16.87;;;;;;;;;;6234389;28;20197;-57
2023/03/08 05:56:23;;;;;;;25.50;16.90;;;;;;;;;;6259886;28;20242;-56
2023/03/08 05:59:25;;;;;;;26.80;17.70;;;;;;;;;;6236516;28;20191;-58
2023/03/08 06:02:28;;;;;;;24.07;16.60;;;;;;;;;;6243446;28;20210;-59
2023/03/08 06:05:29;;;;;;;27.43;18.27;;;;;;;;;;6241223;28;20255;-55
2023/03/08 06:08:30;;;;;;;25.43;17.53;;;;;;;;;;6216151;28;20222;-56
2023/03/08 06:11:32;;;;;;;28.27;19.00;;;;;;;;;;6242989;28;20200;-53
2023/03/08 06:14:33;;;;;;;26.33;18.03;;;;;;;;;;6236714;28;20731;-54
2023/03/08 06:17:34;;;;;;;27.03;19.00;;;;;;;;;;6243979;28;20233;-57
2023/03/08 06:20:35;;;;;;;27.70;18.73;;;;;;;;;;6240385;28;20226;-58
2023/03/08 06:23:36;;;;;;;26.80;18.13;;;;;;;;;;6239262;28;20204;-56
2023/03/08 06:26:37;;;;;;;25.73;18.20;;;;;;;;;;6251727;28;20194;-56
2023/03/08 06:29:38;;;;;;;24.20;16.77;;;;;;;;;;6227368;28;20199;-55
2023/03/08 06:32:40;;;;;;;23.63;16.93;;;;;;;;;;6234313;28;20201;-58
2023/03/08 06:35:41;;;;;;;27.30;18.97;;;;;;;;;;6225387;28;20239;-56
2023/03/08 06:38:42;;;;;;;33.17;20.50;;;;;;;;;;6236627;28;20190;-59
2023/03/08 06:41:43;;;;;;;27.57;19.43;;;;;;;;;;6245017;28;20233;-58
2023/03/08 06:44:44;;;;;;;32.70;21.07;;;;;;;;;;6228152;28;20195;-56
2023/03/08 06:47:45;;;;;;;30.27;20.10;;;;;;;;;;6230757;28;20198;-56
2023/03/08 06:50:46;;;;;;;31.63;18.83;;;;;;;;;;6229092;28;20201;-55
2023/03/08 06:53:48;;;;;;;30.70;20.77;;;;;;;;;;6225483;28;20199;-57
2023/03/08 06:56:49;;;;;;;28.70;19.47;;;;;;;;;;6254014;28;20215;-57
2023/03/08 06:59:50;;;;;;;27.37;18.17;;;;;;;;;;6227307;28;20267;-54
2023/03/08 07:02:52;;;;;;;28.00;17.73;;;;;;;;;;6234350;28;20223;-57
2023/03/08 07:05:57;;;;;;;22.87;17.67;;;;;;;;;;6234584;28;20195;-57
2023/03/08 07:08:58;;;;;;;29.60;18.47;;;;;;;;;;6238230;28;20457;-57
2023/03/08 07:12:00;;;;;;;25.43;18.20;;;;;;;;;;6224129;28;20221;-56
2023/03/08 07:15:01;;;;;;;25.83;17.50;;;;;;;;;;6241601;28;20187;-58
2023/03/08 07:18:02;;;;;;;24.10;16.20;;;;;;;;;;6223261;28;20239;-53
2023/03/08 07:21:03;;;;;;;24.67;17.13;;;;;;;;;;6220623;28;20198;-52
2023/03/08 07:24:04;;;;;;;27.93;17.43;;;;;;;;;;6245266;28;20190;-57
2023/03/08 07:27:05;;;;;;;21.00;15.90;;;;;;;;;;6242471;28;20260;-57
2023/03/08 07:30:10;;;;;;;24.70;17.10;;;;;;;;;;6243247;28;20190;-55
2023/03/08 07:33:11;;;;;;;23.23;17.13;;;;;;;;;;6227268;28;20194;-54
2023/03/08 07:36:13;;;;;;;20.90;15.93;;;;;;;;;;6254429;28;20237;-56
2023/03/08 07:39:14;;;;;;;23.37;15.80;;;;;;;;;;6245459;28;20194;-56
2023/03/08 07:42:15;;;;;;;26.87;17.80;;;;;;;;;;6221547;28;20266;-54
2023/03/08 07:45:17;;;;;;;20.17;15.40;;;;;;;;;;6222428;28;20191;-58
2023/03/08 07:48:18;;;;;;;18.63;14.83;;;;;;;;;;6246657;28;20210;-57
2023/03/08 07:51:19;;;;;;;23.37;16.30;;;;;;;;;;6228515;28;20194;-58
2023/03/08 07:54:20;;;;;;;17.83;14.17;;;;;;;;;;6213969;28;20297;-57
2023/03/08 07:57:21;;;;;;;22.13;15.87;;;;;;;;;;6224281;28;20228;-58
2023/03/08 08:00:22;;;;;;;20.73;15.97;;;;;;;;;;6231043;28;20278;-58
2023/03/08 08:03:23;;;;;;;18.57;14.00;;;;;;;;;;6228900;28;20293;-58
2023/03/08 08:06:25;;;;;;;19.70;15.77;;;;;;;;;;6236248;28;20194;-58
2023/03/08 08:09:26;;;;;;;20.47;15.07;;;;;;;;;;6238378;28;20199;-58
2023/03/08 08:12:27;;;;;;;22.10;15.07;;;;;;;;;;6221263;28;20190;-59
2023/03/08 08:15:29;;;;;;;21.40;15.90;;;;;;;;;;6239245;28;20214;-58
2023/03/08 08:18:30;;;;;;;24.10;16.10;;;;;;;;;;6239023;28;20282;-58
2023/03/08 08:21:31;;;;;;;17.40;13.03;;;;;;;;;;6238953;28;20268;-57
2023/03/08 08:24:33;;;;;;;19.43;14.63;;;;;;;;;;6227172;28;20236;-56
2023/03/08 08:27:34;;;;;;;18.47;13.10;;;;;;;;;;6221736;28;20191;-58
2023/03/08 08:30:35;;;;;;;21.97;15.20;;;;;;;;;;6244640;28;20198;-58
2023/03/08 08:33:36;;;;;;;20.47;14.13;;;;;;;;;;6218123;28;20213;-57
2023/03/08 08:36:37;;;;;;;16.03;12.33;;;;;;;;;;6220083;28;20307;-57
2023/03/08 08:39:39;;;;;;;18.60;13.20;;;;;;;;;;6231087;28;20190;-58
2023/03/08 08:42:40;;;;;;;16.33;11.97;;;;;;;;;;6228874;28;20198;-59
2023/03/08 08:45:45;;;;;;;15.33;11.50;;;;;;;;;;6244948;28;20195;-58
2023/03/08 08:48:46;;;;;;;21.43;14.50;;;;;;;;;;6227866;28;20692;-58
2023/03/08 08:51:47;;;;;;;18.17;13.30;;;;;;;;;;6242800;28;20204;-57
2023/03/08 08:54:48;;;;;;;18.97;13.90;;;;;;;;;;6232978;28;20734;-59
2023/03/08 08:57:49;;;;;;;18.60;12.80;;;;;;;;;;6229679;28;20210;-58
2023/03/08 09:00:50;;;;;;;16.80;12.83;;;;;;;;;;6232357;28;20186;-59
2023/03/08 09:03:51;;;;;;;16.80;13.50;;;;;;;;;;6233929;28;20220;-60
2023/03/08 09:06:53;;;;;;;20.83;13.60;;;;;;;;;;6233116;28;20229;-58
2023/03/08 09:09:54;;;;;;;16.60;12.60;;;;;;;;;;6232528;28;20213;-59
2023/03/08 09:12:55;;;;;;;18.03;13.00;;;;;;;;;;6248133;28;20289;-59
2023/03/08 09:15:56;;;;;;;15.63;11.93;;;;;;;;;;6241818;28;20206;-59
2023/03/08 09:18:58;;;;;;;17.27;13.40;;;;;;;;;;6228272;28;20198;-59
2023/03/08 09:21:59;;;;;;;15.67;12.80;;;;;;;;;;6239126;28;20254;-59
2023/03/08 09:25:00;;;;;;;14.17;11.80;;;;;;;;;;6220756;28;20297;-59
2023/03/08 09:28:01;;;;;;;18.50;12.73;;;;;;;;;;6246920;28;20199;-59
2023/03/08 09:31:10;;;;;;;16.53;12.00;;;;;;;;;;6251799;28;20197;-58
2023/03/08 09:34:14;;;;;;;15.73;12.37;;;;;;;;;;6239616;28;20276;-59
2023/03/08 09:37:15;;;;;;;13.17;10.23;;;;;;;;;;6249714;28;20275;-58
2023/03/08 09:40:19;;;;;;;14.00;11.17;;;;;;;;;;6248949;28;20203;-59
2023/03/08 09:43:28;;;;;;;17.03;12.33;;;;;;;;;;6246576;28;20248;-59
2023/03/08 09:46:47;;;;;;;14.93;11.80;;;;;;;;;;6232637;28;20194;-59
2023/03/08 09:49:50;;;;;;;16.60;12.10;;;;;;;;;;6245376;28;20266;-59
2023/03/08 09:53:00;;;;;;;13.33;10.73;;;;;;;;;;6244258;28;20241;-59
2023/03/08 09:56:22;;;;;;;16.77;12.87;;;;;;;;;;6238039;28;20242;-58
2023/03/08 09:59:42;;;;;;;16.20;12.43;;;;;;;;;;6234931;28;20206;-57
2023/03/08 10:02:56;;;;;;;16.20;11.77;;;;;;;;;;6242766;28;20208;-58
2023/03/08 10:06:09;;;;;;;16.50;12.53;;;;;;;;;;6255417;28;20295;-59
2023/03/08 10:09:20;;;;;;;15.57;11.97;;;;;;;;;;6234387;28;20195;-59
2023/03/08 10:12:33;;;;;;;15.63;12.50;;;;;;;;;;6246615;28;20194;-59
2023/03/08 10:15:39;;;;;;;15.73;11.97;;;;;;;;;;6246298;28;20219;-58
2023/03/08 10:18:44;;;;;;;16.50;12.20;;;;;;;;;;6244907;28;20187;-58
2023/03/08 10:21:46;;;;;;;16.80;12.83;;;;;;;;;;6248199;28;20257;-58
2023/03/08 10:24:53;;;;;;;18.20;13.63;;;;;;;;;;6226505;28;20190;-57
2023/03/08 10:27:55;;;;;;;18.00;13.87;;;;;;;;;;6241189;28;20201;-57
2023/03/08 10:31:00;;;;;;;15.70;12.37;;;;;;;;;;6248653;28;20201;-58
2023/03/08 10:34:03;;;;;;;17.27;13.70;;;;;;;;;;6238846;28;20588;-57
2023/03/08 10:37:06;;;;;;;16.63;13.57;;;;;;;;;;6226728;28;20218;-58
2023/03/08 10:40:08;;;;;;;17.13;14.17;;;;;;;;;;6236805;28;20191;-58
2023/03/08 10:43:16;;;;;;;19.87;14.90;;;;;;;;;;6227568;28;20195;-58
2023/03/08 10:46:18;;;;;;;19.50;14.23;;;;;;;;;;6234449;28;20281;-58
2023/03/08 10:49:22;;;;;;;18.07;13.77;;;;;;;;;;6237138;28;20195;-58
2023/03/08 10:52:25;;;;;;;16.40;13.13;;;;;;;;;;6235548;28;20190;-59
2023/03/08 10:55:31;;;;;;;17.93;14.57;;;;;;;;;;6258602;28;20187;-58
2023/03/08 10:58:32;;;;;;;20.53;15.30;;;;;;;;;;6244263;28;20179;-59
2023/03/08 11:01:34;;;;;;;23.97;15.80;;;;;;;;;;6242000;28;20490;-58
2023/03/08 11:04:35;;;;;;;20.73;15.20;;;;;;;;;;6245810;28;20645;-55
2023/03/08 11:07:36;;;;;;;22.90;16.37;;;;;;;;;;6227283;28;20218;-58
2023/03/08 11:10:37;;;;;;;23.60;16.00;;;;;;;;;;6231296;28;20190;-58
2023/03/08 11:13:40;;;;;;;21.80;13.97;;;;;;;;;;6217593;28;20202;-58
2023/03/08 11:16:47;;;;;;;17.83;14.77;;;;;;;;;;6222968;28;20913;-59
2023/03/08 11:19:49;;;;;;;19.53;14.90;;;;;;;;;;6234826;28;20802;-56
2023/03/08 11:23:06;;;;;;;21.90;16.03;;;;;;;;;;6236333;28;20684;-55
2023/03/08 11:26:18;;;;;;;21.63;14.87;;;;;;;;;;6234611;28;20203;-58
2023/03/08 11:29:26;;;;;;;19.10;14.37;;;;;;;;;;6237944;28;20283;-56
2023/03/08 11:32:29;;;;;;;20.73;15.03;;;;;;;;;;6243321;28;20203;-56
2023/03/08 11:35:37;;;;;;;18.80;14.73;;;;;;;;;;6237100;28;20245;-56
2023/03/08 11:38:38;;;;;;;17.57;14.70;;;;;;;;;;6226179;28;20286;-58
2023/03/08 11:41:53;;;;;;;21.07;13.73;;;;;;;;;;6245173;28;20186;-59
2023/03/08 11:45:13;;;;;;;17.33;13.27;;;;;;;;;;6233783;28;20192;-58
2023/03/08 11:48:21;;;;;;;19.43;12.63;;;;;;;;;;6252032;28;20238;-56
2023/03/08 11:51:27;;;;;;;16.07;12.90;;;;;;;;;;6224455;28;20250;-57
2023/03/08 11:54:41;;;;;;;16.70;13.23;;;;;;;;;;6241007;28;20485;-59
2023/03/08 11:57:44;;;;;;;18.43;15.00;;;;;;;;;;6237649;28;20207;-55
2023/03/08 12:00:47;;;;;;;19.30;13.63;;;;;;;;;;6243006;28;20195;-56
2023/03/08 12:03:54;;;;;;;15.40;11.77;;;;;;;;;;6238790;28;20222;-56
2023/03/08 12:06:55;;;;;;;17.13;12.03;;;;;;;;;;6232571;28;20525;-56
2023/03/08 12:10:02;;;;;;;14.93;11.93;;;;;;;;;;6219923;28;20669;-57
2023/03/08 12:13:22;;;;;;;14.43;10.40;;;;;;;;;;6242591;28;20223;-55
2023/03/08 12:16:30;;;;;;;14.33;10.83;;;;;;;;;;6234702;28;20219;-55
2023/03/08 12:19:42;;;;;;;13.50;11.00;;;;;;;;;;6236703;28;20218;-56
2023/03/08 12:22:50;;;;;;;15.30;12.03;;;;;;;;;;6241840;28;20336;-54
2023/03/08 12:26:00;;;;;;;16.10;11.87;;;;;;;;;;6250525;28;20245;-54
2023/03/08 12:29:15;;;;;;;14.33;12.63;;;;;;;;;;6224436;28;20195;-57
2023/03/08 12:32:17;;;;;;;12.90;10.93;;;;;;;;;;6231630;28;20218;-57
2023/03/08 12:35:26;;;;;;;15.27;11.83;;;;;;;;;;6214386;28;20321;-55
2023/03/08 12:38:35;;;;;;;13.17;10.97;;;;;;;;;;6233299;28;20306;-56
2023/03/08 12:41:37;;;;;;;14.57;10.83;;;;;;;;;;6230747;28;20188;-55
2023/03/08 12:44:38;;;;;;;13.90;11.67;;;;;;;;;;6225887;28;20191;-56
2023/03/08 12:47:39;;;;;;;11.87;9.93;;;;;;;;;;6233389;28;20195;-55
2023/03/08 12:50:43;;;;;;;12.70;11.23;;;;;;;;;;6225884;28;20194;-56
2023/03/08 12:53:54;;;;;;;13.67;10.13;;;;;;;;;;6235522;28;20198;-55
2023/03/08 12:56:56;;;;;;;14.57;10.77;;;;;;;;;;6240422;28;20233;-56
2023/03/08 13:00:04;;;;;;;13.23;11.20;;;;;;;;;;6220659;28;20238;-54
2023/03/08 13:03:14;;;;;;;13.90;11.67;;;;;;;;;;6246054;28;20310;-57
2023/03/08 13:06:35;;;;;;;13.90;11.80;;;;;;;;;;6231190;28;20195;-55
2023/03/08 13:09:45;;;;;;;13.07;11.00;;;;;;;;;;6200791;28;20432;-54
2023/03/08 13:13:05;;;;;;;12.83;11.23;;;;;;;;;;6234429;28;20207;-55
2023/03/08 13:16:18;;;;;;;11.13;9.17;;;;;;;;;;6233391;28;20237;-55
2023/03/08 13:19:27;;;;;;;11.73;10.50;;;;;;;;;;6249819;28;20190;-52
2023/03/08 13:22:49;;;;;;;12.57;11.27;;;;;;;;;;6242317;28;20186;-55
2023/03/08 13:26:13;;;;;;;11.67;10.47;;;;;;;;;;6221928;28;20199;-57
2023/03/08 13:29:16;;;;;;;12.50;10.30;;;;;;;;;;6234396;28;20199;-57
2023/03/08 13:32:18;;;;;;;12.23;10.60;;;;;;;;;;6244514;28;20191;-57
2023/03/08 13:35:19;;;;;;;11.90;10.67;;;;;;;;;;6241839;28;20238;-58
2023/03/08 13:38:22;;;;;;;10.40;8.83;;;;;;;;;;6245406;28;20201;-56
2023/03/08 13:41:32;;;;;;;10.27;8.70;;;;;;;;;;6251549;28;20186;-57
2023/03/08 13:44:33;;;;;;;11.30;10.20;;;;;;;;;;6247858;28;20187;-57
2023/03/08 13:47:35;;;;;;;10.87;9.87;;;;;;;;;;6251824;28;20194;-56
2023/03/08 13:50:37;;;;;;;9.27;7.73;;;;;;;;;;6248872;28;20199;-57
2023/03/08 13:53:39;;;;;;;12.23;11.13;;;;;;;;;;6246287;28;20198;-55
2023/03/08 13:56:40;;;;;;;10.90;9.73;;;;;;;;;;6232614;28;20214;-56
2023/03/08 13:59:47;;;;;;;10.00;9.00;;;;;;;;;;6244586;28;20266;-59
2023/03/08 14:02:48;;;;;;;12.37;9.23;;;;;;;;;;6238880;28;20242;-60
2023/03/08 14:05:49;;;;;;;10.80;9.70;;;;;;;;;;6236777;28;20194;-61
2023/03/08 14:08:52;;;;;;;10.77;9.67;;;;;;;;;;6219515;28;20244;-61
2023/03/08 14:11:56;;;;;;;10.00;8.83;;;;;;;;;;6239687;28;20197;-61
2023/03/08 14:14:59;;;;;;;10.53;9.43;;;;;;;;;;6242575;28;20194;-62
2023/03/08 14:18:03;;;;;;;10.97;9.37;;;;;;;;;;6245347;28;20237;-57
2023/03/08 14:21:06;;;;;;;9.73;7.73;;;;;;;;;;6218700;28;20199;-57
2023/03/08 14:24:18;;;;;;;8.57;7.87;;;;;;;;;;6242147;28;20197;-57
2023/03/08 14:27:19;;;;;;;10.73;9.20;;;;;;;;;;6240552;28;20269;-57
2023/03/08 14:30:21;;;;;;;11.23;8.60;;;;;;;;;;6246867;28;20215;-56
2023/03/08 14:33:24;;;;;;;8.60;7.57;;;;;;;;;;6250613;28;20191;-55
2023/03/08 14:36:26;;;;;;;8.17;7.20;;;;;;;;;;6245021;28;20302;-56
2023/03/08 14:39:29;;;;;;;8.27;7.30;;;;;;;;;;6242857;28;20187;-57
2023/03/08 14:42:34;;;;;;;7.23;6.57;;;;;;;;;;6249314;28;20190;-55
2023/03/08 14:45:37;;;;;;;7.30;6.60;;;;;;;;;;6249141;28;20217;-55
2023/03/08 14:48:38;;;;;;;9.27;7.27;;;;;;;;;;6237570;28;20187;-55
2023/03/08 14:51:40;;;;;;;7.50;6.57;;;;;;;;;;6232445;28;20193;-56
2023/03/08 14:54:41;;;;;;;9.20;6.87;;;;;;;;;;6243424;28;20186;-57
2023/03/08 14:57:42;;;;;;;7.03;6.30;;;;;;;;;;6237994;28;20222;-59
2023/03/08 15:00:50;;;;;;;7.50;5.57;;;;;;;;;;6220223;28;20213;-57
2023/03/08 15:03:51;;;;;;;7.40;6.00;;;;;;;;;;6235271;28;20184;-57
2023/03/08 15:06:54;;;;;;;7.40;5.00;;;;;;;;;;6222818;28;20195;-57
2023/03/08 15:09:55;;;;;;;7.80;4.70;;;;;;;;;;6233067;28;20190;-58
2023/03/08 15:12:56;;;;;;;5.57;4.60;;;;;;;;;;6218759;28;20205;-57
2023/03/08 15:15:57;;;;;;;4.57;4.03;;;;;;;;;;6235690;28;20223;-57
2023/03/08 15:18:58;;;;;;;4.37;3.70;;;;;;;;;;6226367;28;20194;-56
2023/03/08 15:22:03;;;;;;;4.87;3.80;;;;;;;;;;6214592;28;20196;-57
2023/03/08 15:25:12;;;;;;;6.97;4.10;;;;;;;;;;6228304;28;20195;-57
2023/03/08 15:28:14;;;;;;;6.03;4.30;;;;;;;;;;6240012;28;20187;-57
2023/03/08 15:31:15;;;;;;;5.40;3.60;;;;;;;;;;6241330;28;20202;-56
2023/03/08 15:34:16;;;;;;;8.80;3.73;;;;;;;;;;6223773;28;20238;-55
2023/03/08 15:37:17;;;;;;;4.27;3.67;;;;;;;;;;6241097;28;20234;-54
2023/03/08 15:40:23;;;;;;;4.60;3.67;;;;;;;;;;6240120;28;20244;-52
2023/03/08 15:43:24;;;;;;;6.73;3.77;;;;;;;;;;6239896;28;20190;-55
2023/03/08 15:46:25;;;;;;;4.00;3.37;;;;;;;;;;6246953;28;20205;-54
2023/03/08 15:49:26;;;;;;;3.73;3.40;;;;;;;;;;6247772;28;20222;-51
2023/03/08 15:52:28;;;;;;;4.30;3.07;;;;;;;;;;6229984;28;20203;-56
2023/03/08 15:55:30;;;;;;;5.93;3.77;;;;;;;;;;6246205;28;20244;-57
2023/03/08 15:58:31;;;;;;;5.63;3.27;;;;;;;;;;6242498;28;20191;-56
2023/03/08 16:01:32;;;;;;;4.10;3.43;;;;;;;;;;6245665;28;20225;-57
2023/03/08 16:04:33;;;;;;;5.13;3.07;;;;;;;;;;6248266;28;20182;-56
2023/03/08 16:07:34;;;;;;;4.60;3.40;;;;;;;;;;6231517;28;20313;-53
2023/03/08 16:10:39;;;;;;;4.13;3.27;;;;;;;;;;6242490;28;20191;-55
2023/03/08 16:13:40;;;;;;;4.23;3.20;;;;;;;;;;6232371;28;20204;-55
2023/03/08 16:16:41;;;;;;;5.30;3.03;;;;;;;;;;6223054;28;20295;-55
2023/03/08 16:19:42;;;;;;;6.23;3.27;;;;;;;;;;6222791;28;20188;-56
2023/03/08 16:22:45;;;;;;;4.90;3.30;;;;;;;;;;6227592;28;20202;-56
2023/03/08 16:25:46;;;;;;;7.10;3.33;;;;;;;;;;6246896;28;20202;-56
2023/03/08 16:28:47;;;;;;;5.37;3.17;;;;;;;;;;6236806;28;20194;-51
2023/03/08 16:31:48;;;;;;;5.13;3.13;;;;;;;;;;6239136;28;20276;-50
2023/03/08 16:34:49;;;;;;;5.37;3.17;;;;;;;;;;6244361;28;20242;-57
2023/03/08 16:37:52;;;;;;;5.37;3.30;;;;;;;;;;6241284;28;20225;-56
2023/03/08 16:40:53;;;;;;;6.60;3.20;;;;;;;;;;6243587;28;20552;-55
2023/03/08 16:43:54;;;;;;;5.07;3.20;;;;;;;;;;6228712;28;20188;-56
2023/03/08 16:46:56;;;;;;;8.03;4.03;;;;;;;;;;6229299;28;20239;-53
2023/03/08 16:49:57;;;;;;;5.60;2.90;;;;;;;;;;6222223;28;20199;-56
2023/03/08 16:52:58;;;;;;;5.30;3.20;;;;;;;;;;6236833;28;20194;-54
2023/03/08 16:55:59;;;;;;;5.07;3.20;;;;;;;;;;6226130;28;20220;-57
2023/03/08 16:59:01;;;;;;;5.07;3.40;;;;;;;;;;6230864;28;20194;-56
2023/03/08 17:02:02;;;;;;;5.00;3.23;;;;;;;;;;6247747;28;20183;-52
2023/03/08 17:05:03;;;;;;;4.53;3.13;;;;;;;;;;6228193;28;20191;-58
2023/03/08 17:08:04;;;;;;;5.40;3.17;;;;;;;;;;6243005;28;20191;-58
2023/03/08 17:11:06;;;;;;;6.33;3.30;;;;;;;;;;6225572;28;20213;-58
2023/03/08 17:14:08;;;;;;;5.57;3.13;;;;;;;;;;6225505;28;20191;-59
2023/03/08 17:17:10;;;;;;;5.27;3.53;;;;;;;;;;6242098;28;20218;-58
2023/03/08 17:20:12;;;;;;;3.87;3.20;;;;;;;;;;6235807;28;20197;-60
2023/03/08 17:23:13;;;;;;;4.73;3.50;;;;;;;;;;6235814;28;20195;-59
2023/03/08 17:26:15;;;;;;;6.97;3.53;;;;;;;;;;6231763;28;20274;-59
2023/03/08 17:29:16;;;;;;;5.50;3.37;;;;;;;;;;6237888;28;20253;-59
2023/03/08 17:32:17;;;;;;;7.20;3.90;;;;;;;;;;6241408;28;20218;-59
2023/03/08 17:35:18;;;;;;;5.90;3.70;;;;;;;;;;6249234;28;20248;-59
2023/03/08 17:38:20;;;;;;;4.23;3.50;;;;;;;;;;6231216;28;20284;-60
2023/03/08 17:41:21;;;;;;;7.23;3.57;;;;;;;;;;6242100;28;20191;-60
2023/03/08 17:44:24;;;;;;;4.47;3.30;;;;;;;;;;6231178;28;20202;-59
2023/03/08 17:47:25;;;;;;;6.50;3.40;;;;;;;;;;6224765;28;20199;-58
2023/03/08 17:50:28;;;;;;;6.53;3.60;;;;;;;;;;6243944;28;20206;-60
2023/03/08 17:53:29;;;;;;;7.70;3.97;;;;;;;;;;6229312;28;20194;-59